Time;durP1;ratioP1;P1;durP2;ratioP2;P2;SDS_P1;SDS_P2;PMS_P1;PMS_P2;Temp;Humidity;BMP_temperature;BMP_pressure;BME280_temperature;BME280_humidity;BME280_pressure;Samples;Min_cycle;Max_cycle;Signal;HPM_P1;HPM_P2
2022/02/07 00:01:01;;;;;;;12.23;7.17;;;3.50;78.40;;;;;;5011738;28;20272;-72
2022/02/07 00:03:46;;;;;;;8.80;5.97;;;3.50;78.30;;;;;;5013003;28;20728;-73
2022/02/07 00:06:13;;;;;;;10.07;6.10;;;3.40;78.70;;;;;;5009431;28;20192;-73
2022/02/07 00:08:43;;;;;;;11.47;6.60;;;3.40;79.00;;;;;;5011504;28;20212;-73
2022/02/07 00:11:08;;;;;;;12.10;7.27;;;3.40;78.60;;;;;;5006923;28;20189;-72
2022/02/07 00:13:34;;;;;;;15.10;8.30;;;3.30;79.10;;;;;;5001938;28;20188;-73
2022/02/07 00:16:00;;;;;;;12.53;7.03;;;3.20;79.60;;;;;;5006081;28;20197;-73
2022/02/07 00:18:26;;;;;;;13.50;7.43;;;3.20;80.10;;;;;;5006855;28;20997;-72
2022/02/07 00:20:52;;;;;;;10.90;6.03;;;3.20;79.70;;;;;;5005912;28;20200;-73
2022/02/07 00:23:18;;;;;;;10.20;6.50;;;3.20;79.70;;;;;;5004962;28;20181;-73
2022/02/07 00:25:44;;;;;;;10.53;6.63;;;3.20;79.60;;;;;;5004400;28;20213;-73
2022/02/07 00:28:10;;;;;;;10.10;6.73;;;3.20;79.80;;;;;;5005533;28;20243;-73
2022/02/07 00:30:36;;;;;;;8.77;6.13;;;3.10;80.30;;;;;;5004957;28;20284;-73
2022/02/07 00:33:03;;;;;;;12.47;6.50;;;3.20;80.10;;;;;;5003474;28;20283;-73
2022/02/07 00:35:29;;;;;;;7.70;5.87;;;3.10;80.90;;;;;;5004001;28;20189;-73
2022/02/07 00:37:57;;;;;;;10.97;6.37;;;3.10;81.00;;;;;;5003954;28;20196;-73
2022/02/07 00:48:04;;;;;;;12.17;6.40;;;3.10;81.60;;;;;;5008390;28;20184;-73
2022/02/07 00:50:31;;;;;;;8.33;6.07;;;3.00;82.20;;;;;;5006622;28;20272;-74
2022/02/07 00:52:57;;;;;;;11.17;6.17;;;3.10;81.50;;;;;;5008326;28;20251;-74
2022/02/07 00:55:26;;;;;;;8.63;5.47;;;3.10;81.60;;;;;;5010299;28;20215;-73
2022/02/07 00:57:52;;;;;;;8.53;5.67;;;3.10;80.80;;;;;;5009947;28;20424;-74
2022/02/07 01:00:19;;;;;;;11.70;6.43;;;3.10;80.90;;;;;;5014868;28;20375;-74
2022/02/07 01:02:45;;;;;;;9.23;5.67;;;3.10;82.00;;;;;;5018132;28;20185;-73
2022/02/07 01:05:13;;;;;;;7.50;5.57;;;3.10;81.60;;;;;;5014177;28;20220;-73
2022/02/07 01:07:41;;;;;;;8.23;5.23;;;3.00;81.40;;;;;;5015315;28;20181;-73
2022/02/07 01:10:08;;;;;;;9.43;5.90;;;3.00;81.40;;;;;;5009957;28;20180;-74
2022/02/07 01:13:02;;;;;;;9.17;5.60;;;3.00;81.10;;;;;;5011111;28;20205;-73
2022/02/07 01:48:14;;;;;;;6.20;4.93;;;2.70;82.40;;;;;;5007262;28;20192;-72
2022/02/07 01:56:10;;;;;;;5.07;4.50;;;2.60;83.50;;;;;;4987094;28;20783;-73
2022/02/07 01:58:36;;;;;;;8.23;5.13;;;2.60;84.20;;;;;;4986838;28;20186;-72
2022/02/07 02:01:02;;;;;;;8.20;5.13;;;2.70;83.70;;;;;;4988440;28;20745;-72
2022/02/07 02:03:28;;;;;;;4.80;3.97;;;2.70;83.50;;;;;;4985942;28;20224;-72
2022/02/07 02:05:55;;;;;;;6.87;4.93;;;2.70;83.30;;;;;;4988934;28;20234;-73
2022/02/07 02:08:21;;;;;;;7.97;4.30;;;2.70;83.30;;;;;;4988473;28;20257;-73
2022/02/07 02:10:51;;;;;;;6.57;4.83;;;2.70;83.10;;;;;;4987598;28;20220;-73
2022/02/07 02:13:22;;;;;;;9.27;5.10;;;2.70;82.90;;;;;;4984320;28;20193;-73
2022/02/07 02:19:10;;;;;;;9.33;5.17;;;2.60;83.80;;;;;;4985924;28;20236;-73
2022/02/07 02:35:24;;;;;;;5.90;5.30;;;2.50;83.30;;;;;;4965492;28;20268;-73
2022/02/07 02:38:05;;;;;;;6.90;5.03;;;2.50;84.30;;;;;;4964346;28;21018;-73
2022/02/07 02:46:00;;;;;;;7.20;4.97;;;2.40;84.20;;;;;;4964347;28;20798;-73
2022/02/07 02:48:28;;;;;;;6.63;4.37;;;2.50;83.90;;;;;;4962282;28;20191;-72
2022/02/07 02:50:55;;;;;;;10.00;5.53;;;2.40;84.20;;;;;;4963200;28;20209;-72
2022/02/07 02:53:22;;;;;;;6.20;5.43;;;2.40;84.30;;;;;;4963663;28;20251;-73
2022/02/07 02:55:49;;;;;;;9.93;5.73;;;2.30;85.40;;;;;;4963370;28;20245;-72
2022/02/07 02:58:21;;;;;;;10.47;5.20;;;2.30;85.50;;;;;;4963744;28;20182;-72
2022/02/07 03:00:49;;;;;;;5.87;5.07;;;2.30;85.20;;;;;;4961977;28;20659;-72
2022/02/07 03:03:14;;;;;;;10.73;5.30;;;2.40;85.30;;;;;;4980176;28;20276;-72
2022/02/07 03:05:43;;;;;;;9.33;4.63;;;2.40;85.40;;;;;;5004872;28;20299;-74
2022/02/07 03:08:11;;;;;;;8.50;5.43;;;2.40;84.90;;;;;;5006030;28;20208;-72
2022/02/07 03:13:47;;;;;;;8.43;5.20;;;2.40;85.50;;;;;;5011222;28;20568;-73
2022/02/07 03:18:43;;;;;;;7.23;4.97;;;2.40;85.90;;;;;;5011110;28;20288;-73
2022/02/07 03:21:09;;;;;;;9.20;5.47;;;2.40;86.40;;;;;;5011462;28;20232;-73
2022/02/07 03:23:35;;;;;;;6.00;4.47;;;2.40;86.80;;;;;;5012325;28;20908;-72
2022/02/07 03:26:01;;;;;;;9.80;4.83;;;2.40;87.10;;;;;;5011021;28;20227;-72
2022/02/07 03:28:28;;;;;;;6.67;4.63;;;2.50;87.60;;;;;;5014499;28;20243;-72
2022/02/07 03:30:54;;;;;;;8.93;5.10;;;2.60;86.30;;;;;;5013623;28;20228;-72
2022/02/07 03:33:20;;;;;;;9.60;4.80;;;2.60;85.90;;;;;;5015347;28;20208;-73
2022/02/07 03:35:47;;;;;;;8.87;5.13;;;2.70;85.80;;;;;;5018853;28;20192;-73
2022/02/07 03:38:12;;;;;;;7.17;5.37;;;2.70;85.50;;;;;;5017008;28;20212;-74
2022/02/07 03:40:38;;;;;;;7.00;4.63;;;2.70;85.40;;;;;;5012958;28;20180;-73
2022/02/07 03:43:04;;;;;;;6.97;5.23;;;2.70;85.10;;;;;;5009550;28;20215;-73
2022/02/07 03:45:31;;;;;;;6.10;5.10;;;2.70;85.00;;;;;;5006109;28;20213;-73
2022/02/07 03:47:57;;;;;;;8.17;5.23;;;2.70;85.60;;;;;;5005070;28;20177;-73
2022/02/07 03:50:23;;;;;;;6.90;4.50;;;2.70;85.70;;;;;;5003122;28;20193;-71
2022/02/07 03:52:50;;;;;;;6.97;4.57;;;2.70;85.40;;;;;;5004897;28;20238;-72
2022/02/07 03:55:17;;;;;;;6.10;4.53;;;2.70;85.30;;;;;;5004194;28;20184;-72
2022/02/07 03:57:44;;;;;;;6.83;4.83;;;2.70;85.30;;;;;;5011247;28;20264;-72
2022/02/07 04:00:12;;;;;;;9.03;5.33;;;2.70;85.80;;;;;;5015365;28;20177;-72
2022/02/07 04:02:42;;;;;;;8.10;4.37;;;2.70;86.50;;;;;;5015112;28;20188;-73
2022/02/07 04:07:53;;;;;;;12.47;4.80;;;2.90;85.70;;;;;;5017434;28;20199;-73
2022/02/07 04:10:20;;;;;;;5.47;4.93;;;2.90;85.80;;;;;;5017391;28;20268;-71
2022/02/07 04:12:53;;;;;;;5.63;4.77;;;2.90;86.30;;;;;;5020124;28;20181;-73
2022/02/07 04:15:19;;;;;;;6.17;4.77;;;3.00;86.40;;;;;;5013762;28;20713;-72
2022/02/07 04:17:52;;;;;;;9.53;3.67;;;3.00;86.00;;;;;;5005930;28;20181;-73
2022/02/07 04:20:19;;;;;;;6.30;4.07;;;3.00;85.70;;;;;;5007591;28;20661;-73
2022/02/07 04:22:44;;;;;;;5.30;4.40;;;3.10;85.80;;;;;;5007184;28;20185;-72
2022/02/07 04:25:11;;;;;;;6.50;4.60;;;3.20;85.70;;;;;;5008211;28;20209;-72
2022/02/07 04:27:37;;;;;;;6.83;4.60;;;3.30;85.90;;;;;;5010331;28;20189;-73
2022/02/07 04:30:05;;;;;;;5.27;3.77;;;3.40;86.00;;;;;;5014750;28;20188;-73
2022/02/07 04:32:30;;;;;;;4.60;2.80;;;3.40;86.30;;;;;;5014370;28;20180;-73
2022/02/07 04:34:56;;;;;;;4.70;3.50;;;3.60;88.10;;;;;;5011428;28;20256;-72
2022/02/07 04:37:22;;;;;;;2.50;2.40;;;3.80;86.60;;;;;;5012719;28;20192;-72
2022/02/07 04:39:49;;;;;;;5.27;3.97;;;4.00;87.30;;;;;;5010507;28;20192;-72
2022/02/07 04:42:15;;;;;;;8.57;4.53;;;4.10;86.00;;;;;;5007650;28;20196;-73
2022/02/07 04:44:57;;;;;;;6.00;3.87;;;4.20;85.00;;;;;;5007447;28;20201;-73
2022/02/07 04:47:54;;;;;;;5.43;3.67;;;4.30;84.40;;;;;;5004845;28;20187;-72
2022/02/07 04:53:18;;;;;;;3.83;3.43;;;4.40;84.00;;;;;;5008415;28;20251;-72
2022/02/07 04:58:44;;;;;;;2.40;2.20;;;4.50;83.70;;;;;;5027174;28;20207;-73
2022/02/07 05:03:43;;;;;;;4.40;3.10;;;4.60;84.20;;;;;;5027053;28;20215;-72
2022/02/07 05:14:22;;;;;;;3.13;2.73;;;5.00;83.60;;;;;;5020782;28;20221;-72
2022/02/07 05:16:49;;;;;;;3.73;3.53;;;5.10;83.40;;;;;;5020185;28;20188;-73
2022/02/07 05:19:15;;;;;;;2.30;2.23;;;5.10;83.00;;;;;;5020092;28;20191;-75
2022/02/07 05:21:41;;;;;;;2.97;2.40;;;5.10;83.50;;;;;;5019971;28;20192;-73
2022/02/07 05:24:07;;;;;;;2.23;1.97;;;5.20;84.30;;;;;;5020601;28;20684;-74
2022/02/07 05:26:33;;;;;;;2.93;1.80;;;5.30;84.40;;;;;;5020780;28;20189;-73
2022/02/07 05:29:02;;;;;;;4.27;2.47;;;5.40;84.40;;;;;;5018497;28;20251;-74
2022/02/07 05:31:28;;;;;;;2.83;2.00;;;5.50;83.20;;;;;;5019339;28;20279;-74
2022/02/07 05:33:53;;;;;;;1.80;1.63;;;5.60;83.00;;;;;;5021149;28;20191;-74
2022/02/07 05:36:20;;;;;;;1.70;1.70;;;5.70;83.30;;;;;;5001600;28;20231;-73
2022/02/07 05:38:51;;;;;;;2.20;1.80;;;5.80;83.20;;;;;;5003819;28;20219;-74
2022/02/07 05:41:18;;;;;;;3.07;1.90;;;6.00;83.00;;;;;;5002849;28;20738;-72
2022/02/07 05:43:47;;;;;;;1.43;1.43;;;6.10;82.60;;;;;;5002176;28;20189;-73
2022/02/07 05:46:14;;;;;;;1.93;1.90;;;6.30;82.00;;;;;;5003854;28;20235;-73
2022/02/07 05:48:40;;;;;;;2.37;2.00;;;6.40;81.70;;;;;;5003671;28;20207;-73
2022/02/07 05:51:06;;;;;;;1.87;1.73;;;6.50;81.30;;;;;;5001165;28;20608;-73
2022/02/07 05:53:32;;;;;;;2.10;2.00;;;6.60;81.00;;;;;;5001609;28;20675;-73
2022/02/07 05:55:58;;;;;;;2.97;1.53;;;6.70;80.50;;;;;;5002102;28;20185;-73
2022/02/07 05:58:24;;;;;;;2.67;1.80;;;6.90;80.20;;;;;;5002968;28;20189;-72
2022/02/07 06:00:51;;;;;;;1.77;1.67;;;7.00;79.70;;;;;;5001166;28;20216;-73
2022/02/07 06:03:18;;;;;;;1.73;1.63;;;7.10;79.40;;;;;;5014998;28;20817;-73
2022/02/07 06:05:43;;;;;;;1.90;1.80;;;7.10;79.10;;;;;;5002610;28;20221;-76
2022/02/07 06:08:09;;;;;;;8.63;2.97;;;7.20;78.70;;;;;;5002674;28;20188;-74
2022/02/07 06:10:35;;;;;;;3.63;3.33;;;7.30;78.20;;;;;;5002936;28;20922;-75
2022/02/07 06:13:01;;;;;;;4.23;3.83;;;7.20;77.20;;;;;;5000513;28;20239;-76
2022/02/07 06:15:27;;;;;;;6.53;4.90;;;7.20;77.00;;;;;;5001247;28;20803;-76
2022/02/07 06:17:56;;;;;;;8.13;5.17;;;7.10;76.90;;;;;;5001706;28;20208;-76
2022/02/07 06:20:22;;;;;;;10.73;5.97;;;7.00;76.70;;;;;;4999934;28;20220;-75
2022/02/07 06:22:48;;;;;;;6.90;5.90;;;6.90;77.00;;;;;;5000990;28;20185;-76
2022/02/07 06:25:15;;;;;;;7.63;6.13;;;6.70;77.20;;;;;;4999731;28;20221;-76
2022/02/07 06:27:40;;;;;;;7.47;5.47;;;6.50;77.60;;;;;;5001032;28;20181;-75
2022/02/07 06:30:07;;;;;;;9.20;6.57;;;6.30;78.10;;;;;;5003812;28;20600;-73
2022/02/07 06:32:32;;;;;;;9.77;5.77;;;6.10;78.80;;;;;;5006237;28;20650;-72
2022/02/07 06:34:58;;;;;;;5.70;5.10;;;6.00;78.90;;;;;;5005620;28;20323;-73
2022/02/07 06:37:25;;;;;;;9.10;6.37;;;6.00;79.20;;;;;;5005847;28;20298;-74
2022/02/07 06:39:50;;;;;;;6.93;5.87;;;6.10;79.10;;;;;;5005790;28;20642;-74
2022/02/07 06:42:18;;;;;;;7.40;5.43;;;6.10;79.20;;;;;;5000245;28;20188;-73
2022/02/07 06:44:43;;;;;;;9.63;5.37;;;6.10;79.20;;;;;;5004513;28;20229;-74
2022/02/07 06:47:09;;;;;;;8.60;6.27;;;6.20;78.90;;;;;;5004677;28;20519;-74
2022/02/07 06:49:35;;;;;;;7.80;6.07;;;6.30;78.90;;;;;;5002395;28;20189;-75
2022/02/07 06:52:00;;;;;;;7.17;5.73;;;6.40;78.80;;;;;;5001942;28;20181;-74
2022/02/07 06:54:26;;;;;;;7.60;5.47;;;6.40;78.90;;;;;;5002525;28;20188;-74
2022/02/07 06:56:53;;;;;;;12.43;5.93;;;6.30;78.80;;;;;;5002916;28;20189;-74
2022/02/07 06:59:19;;;;;;;6.27;5.20;;;6.20;79.20;;;;;;5001126;28;20196;-73
2022/02/07 07:01:45;;;;;;;7.47;5.30;;;6.10;79.50;;;;;;5001664;28;20177;-74
2022/02/07 07:04:11;;;;;;;8.60;5.60;;;6.10;79.60;;;;;;5000726;28;21039;-74
2022/02/07 07:06:38;;;;;;;9.27;6.47;;;6.10;79.60;;;;;;5002810;28;20185;-74
2022/02/07 07:09:06;;;;;;;9.37;5.30;;;6.10;80.00;;;;;;5002914;28;20204;-73
2022/02/07 07:11:33;;;;;;;7.83;5.83;;;6.10;79.70;;;;;;5003139;28;20793;-74
2022/02/07 07:14:05;;;;;;;6.30;5.70;;;6.10;80.00;;;;;;5003298;28;20188;-74
2022/02/07 07:19:00;;;;;;;6.17;5.33;;;6.80;80.90;;;;;;5005181;28;20568;-74
2022/02/07 07:21:26;;;;;;;8.20;5.57;;;7.20;79.70;;;;;;5004450;28;20176;-72
2022/02/07 07:23:56;;;;;;;6.67;5.50;;;7.40;77.70;;;;;;5002990;28;20208;-73
2022/02/07 07:26:25;;;;;;;5.70;5.20;;;7.50;77.40;;;;;;5001633;28;20248;-73
2022/02/07 07:28:52;;;;;;;9.00;5.87;;;7.70;77.30;;;;;;5002777;28;20685;-74
2022/02/07 07:31:19;;;;;;;6.00;5.40;;;8.00;77.30;;;;;;5002523;28;20582;-74
2022/02/07 07:33:50;;;;;;;8.97;6.27;;;8.30;76.30;;;;;;5003372;28;20185;-74
2022/02/07 07:36:16;;;;;;;7.70;6.20;;;8.50;75.30;;;;;;5002839;28;20189;-74
2022/02/07 07:38:41;;;;;;;6.03;5.33;;;8.60;75.00;;;;;;5004604;28;20220;-73
2022/02/07 07:41:07;;;;;;;6.70;5.53;;;8.70;74.40;;;;;;5000181;28;20262;-74
2022/02/07 07:43:33;;;;;;;6.10;5.53;;;8.70;74.10;;;;;;5004814;28;20206;-74
2022/02/07 07:46:04;;;;;;;8.20;6.00;;;8.70;74.30;;;;;;5003920;28;20220;-74
2022/02/07 07:48:31;;;;;;;7.27;5.87;;;8.70;74.20;;;;;;5003319;28;20195;-73
2022/02/07 07:51:05;;;;;;;7.60;5.60;;;8.70;74.10;;;;;;4999074;28;22165;-73
2022/02/07 08:01:56;;;;;;;6.33;5.73;;;8.50;74.40;;;;;;5004185;28;20193;-74
2022/02/07 08:04:27;;;;;;;9.90;6.90;;;8.50;74.90;;;;;;5000877;28;20219;-73
2022/02/07 08:12:06;;;;;;;8.50;6.67;;;8.60;75.20;;;;;;4999217;28;20597;-73
2022/02/07 08:14:35;;;;;;;8.67;6.70;;;8.50;74.20;;;;;;5000580;28;20295;-73
2022/02/07 08:17:02;;;;;;;7.33;5.97;;;8.50;74.70;;;;;;4999227;28;20190;-73
2022/02/07 08:19:29;;;;;;;7.27;5.97;;;8.40;74.40;;;;;;4999187;28;20185;-74
2022/02/07 08:21:55;;;;;;;9.40;6.50;;;8.40;74.70;;;;;;4980549;28;20977;-73
2022/02/07 08:24:21;;;;;;;11.50;6.30;;;8.40;74.90;;;;;;4995966;28;20229;-72
2022/02/07 08:26:48;;;;;;;9.13;6.20;;;8.40;74.80;;;;;;4994753;28;20208;-73
2022/02/07 08:29:14;;;;;;;7.10;5.97;;;8.40;75.00;;;;;;4981098;28;20298;-73
2022/02/07 08:31:41;;;;;;;7.33;5.97;;;8.40;75.10;;;;;;4998395;28;20203;-73
2022/02/07 08:34:07;;;;;;;10.07;6.60;;;8.50;74.90;;;;;;4998594;28;20177;-73
2022/02/07 08:36:32;;;;;;;7.37;6.40;;;8.50;74.90;;;;;;4998726;28;20216;-73
2022/02/07 08:38:58;;;;;;;11.93;6.67;;;8.60;74.80;;;;;;4996915;28;20204;-73
2022/02/07 08:41:25;;;;;;;11.50;6.63;;;8.70;74.50;;;;;;4998495;28;20189;-73
2022/02/07 08:43:53;;;;;;;10.77;6.37;;;8.80;74.60;;;;;;4998604;28;20316;-73
2022/02/07 08:46:19;;;;;;;11.73;6.80;;;8.80;74.30;;;;;;4997826;28;20346;-73
2022/02/07 08:48:45;;;;;;;10.57;7.00;;;8.80;74.00;;;;;;4985212;28;20185;-73
2022/02/07 08:51:11;;;;;;;9.20;6.33;;;8.80;74.20;;;;;;5002456;28;20303;-73
2022/02/07 08:53:41;;;;;;;12.30;5.77;;;8.90;74.10;;;;;;4999928;28;21222;-74
2022/02/07 08:56:08;;;;;;;5.87;5.33;;;8.90;73.90;;;;;;5000227;28;20191;-73
2022/02/07 08:58:36;;;;;;;7.10;5.33;;;8.90;73.80;;;;;;5000852;28;20296;-73
2022/02/07 09:01:12;;;;;;;6.67;5.00;;;9.00;73.90;;;;;;4998584;28;20191;-73
2022/02/07 09:06:15;;;;;;;10.07;5.60;;;9.20;73.80;;;;;;5000819;28;20209;-73
2022/02/07 09:11:18;;;;;;;13.83;5.97;;;9.30;73.30;;;;;;5001768;28;20181;-74
2022/02/07 09:13:46;;;;;;;8.60;4.87;;;9.40;73.30;;;;;;5002957;28;20180;-74
2022/02/07 09:18:41;;;;;;;9.30;5.67;;;9.60;72.70;;;;;;5000305;28;20189;-73
2022/02/07 09:21:09;;;;;;;5.80;5.30;;;9.70;72.70;;;;;;5002068;28;20181;-73
2022/02/07 09:23:37;;;;;;;5.47;5.00;;;9.80;73.00;;;;;;5001364;28;20204;-74
2022/02/07 09:26:03;;;;;;;6.90;5.20;;;10.20;72.80;;;;;;5000817;28;20215;-73
2022/02/07 09:28:30;;;;;;;9.30;5.88;;;10.50;72.10;;;;;;5001577;28;20291;-76
2022/02/07 09:30:56;;;;;;;6.15;5.28;;;10.70;70.80;;;;;;5000344;28;20580;-76
2022/02/07 09:33:23;;;;;;;8.38;5.95;;;10.80;70.50;;;;;;5001470;28;20186;-74
2022/02/07 09:35:50;;;;;;;5.13;4.63;;;10.90;70.60;;;;;;5001552;28;20189;-75
2022/02/07 09:38:17;;;;;;;10.55;5.78;;;11.10;70.10;;;;;;5001083;28;20247;-74
2022/02/07 09:40:49;;;;;;;5.70;5.10;;;11.20;69.40;;;;;;4999297;28;20303;-75
2022/02/07 09:43:16;;;;;;;6.07;5.50;;;11.00;68.60;;;;;;5000749;28;20195;-74
2022/02/07 09:45:44;;;;;;;6.85;5.38;;;10.90;69.30;;;;;;4999325;28;20835;-74
2022/02/07 09:48:10;;;;;;;6.10;5.55;;;10.90;69.80;;;;;;4993874;28;20619;-74
2022/02/07 09:50:37;;;;;;;10.20;5.40;;;10.80;69.50;;;;;;4998536;28;20231;-74
2022/02/07 09:53:04;;;;;;;13.93;5.65;;;10.70;69.80;;;;;;5002202;28;20193;-74
2022/02/07 09:55:32;;;;;;;10.60;5.95;;;10.80;70.00;;;;;;4999583;28;20191;-74
2022/02/07 09:57:58;;;;;;;9.02;5.65;;;10.90;69.40;;;;;;5001074;28;20185;-74
2022/02/07 10:00:34;;;;;;;10.10;5.15;;;11.00;69.80;;;;;;5002548;28;20192;-74
2022/02/07 10:03:05;;;;;;;6.35;5.75;;;11.00;69.00;;;;;;5001301;28;20246;-74
2022/02/07 10:05:36;;;;;;;10.27;5.18;;;11.00;69.20;;;;;;5006171;28;20217;-74
2022/02/07 10:10:45;;;;;;;6.18;5.50;;;11.50;69.50;;;;;;5005188;28;20188;-73
2022/02/07 10:15:58;;;;;;;7.13;5.38;;;12.10;68.30;;;;;;5005322;28;20193;-74
2022/02/07 10:35:32;;;;;;;6.28;5.07;;;12.60;65.40;;;;;;4967770;28;20460;-75
2022/02/07 10:40:36;;;;;;;4.93;4.43;;;11.90;64.90;;;;;;5000850;28;20243;-75
2022/02/07 10:43:19;;;;;;;5.75;5.20;;;11.80;66.40;;;;;;5001422;28;20227;-74
2022/02/07 10:45:54;;;;;;;7.85;5.70;;;11.80;67.10;;;;;;4982394;28;20618;-75
2022/02/07 10:48:37;;;;;;;7.65;5.20;;;11.70;67.10;;;;;;4993787;28;20274;-76
2022/02/07 10:51:19;;;;;;;7.30;5.30;;;11.70;67.30;;;;;;4999565;28;20215;-75
2022/02/07 10:53:46;;;;;;;4.32;3.92;;;11.50;67.50;;;;;;5000855;28;20180;-75
2022/02/07 10:56:14;;;;;;;6.07;2.50;;;11.40;66.50;;;;;;4999796;28;20212;-74
2022/02/07 10:58:40;;;;;;;2.17;1.40;;;11.20;65.50;;;;;;4995736;28;20648;-73
2022/02/07 11:01:12;;;;;;;1.30;1.30;;;11.20;65.00;;;;;;5001355;28;20227;-73
2022/02/07 11:03:48;;;;;;;2.58;1.88;;;11.20;65.00;;;;;;5000999;28;20193;-73
2022/02/07 11:06:18;;;;;;;1.08;1.08;;;11.20;65.30;;;;;;5000445;28;20212;-73
2022/02/07 11:09:10;;;;;;;1.55;1.42;;;11.20;65.00;;;;;;4998000;28;20323;-74
2022/02/07 11:19:32;;;;;;;3.88;3.55;;;11.20;66.10;;;;;;5001613;28;20193;-73
2022/02/07 11:27:56;;;;;;;1.50;1.13;;;11.10;66.10;;;;;;4976074;28;20189;-73
2022/02/07 11:30:46;;;;;;;2.10;0.82;;;11.00;65.70;;;;;;4989664;28;20206;-75
2022/02/07 11:33:36;;;;;;;2.92;1.05;;;10.90;66.10;;;;;;4963095;28;20193;-74
2022/02/07 11:36:04;;;;;;;0.73;0.73;;;11.00;66.40;;;;;;4977142;28;20724;-75
2022/02/07 11:38:30;;;;;;;0.80;0.80;;;10.90;66.40;;;;;;4993367;28;20201;-75
2022/02/07 11:40:55;;;;;;;1.35;0.60;;;10.90;66.80;;;;;;4976251;28;20193;-72
2022/02/07 11:43:29;;;;;;;2.45;0.70;;;10.90;67.40;;;;;;4959374;28;20703;-73
2022/02/07 11:46:08;;;;;;;2.67;0.70;;;10.90;67.60;;;;;;4956917;28;20209;-74
2022/02/07 11:48:40;;;;;;;0.57;0.57;;;10.80;68.00;;;;;;4978418;28;20200;-74
2022/02/07 11:51:20;;;;;;;1.42;0.57;;;10.70;68.30;;;;;;4990376;28;20185;-75
2022/02/07 11:53:49;;;;;;;0.80;0.80;;;10.60;68.10;;;;;;4978017;28;20185;-74
2022/02/07 11:56:21;;;;;;;0.60;0.60;;;10.60;68.10;;;;;;4960441;28;20202;-74
2022/02/07 11:59:14;;;;;;;0.40;0.40;;;10.60;67.80;;;;;;4993313;28;20178;-76
2022/02/07 12:02:03;;;;;;;1.75;0.60;;;10.60;67.80;;;;;;4971648;28;20203;-74
2022/02/07 12:04:40;;;;;;;0.90;0.90;;;10.60;67.80;;;;;;4998947;28;20370;-74
2022/02/07 12:07:15;;;;;;;0.55;0.55;;;10.60;67.70;;;;;;4999263;28;20284;-75
2022/02/07 12:12:39;;;;;;;0.90;0.82;;;10.70;68.00;;;;;;5000438;28;20193;-74
2022/02/07 12:15:35;;;;;;;0.70;0.70;;;10.80;67.90;;;;;;4999279;28;20585;-74
2022/02/07 12:18:18;;;;;;;0.60;0.60;;;10.80;67.60;;;;;;5001072;28;20304;-74
2022/02/07 12:20:48;;;;;;;1.48;0.80;;;10.90;67.50;;;;;;4999918;28;20185;-74
2022/02/07 12:23:27;;;;;;;3.70;1.88;;;11.00;67.40;;;;;;4997597;28;20710;-73
2022/02/07 12:26:08;;;;;;;3.28;3.03;;;11.00;67.40;;;;;;5000561;28;20212;-74
2022/02/07 12:28:46;;;;;;;9.43;5.18;;;11.10;67.50;;;;;;4995339;28;20185;-75
2022/02/07 12:31:21;;;;;;;11.02;6.63;;;11.10;67.90;;;;;;4995744;28;20196;-74
2022/02/07 12:34:12;;;;;;;15.52;6.93;;;11.10;68.20;;;;;;4999339;28;20185;-74
2022/02/07 12:36:39;;;;;;;11.35;6.50;;;11.10;68.40;;;;;;4999191;28;20512;-75
2022/02/07 12:39:13;;;;;;;8.93;6.32;;;11.00;68.50;;;;;;5001031;28;20235;-74
2022/02/07 12:41:40;;;;;;;5.30;4.65;;;11.00;68.40;;;;;;5000848;28;21544;-73
2022/02/07 12:44:09;;;;;;;5.75;3.83;;;10.90;68.60;;;;;;4998297;28;20188;-74
2022/02/07 12:46:39;;;;;;;11.57;4.78;;;10.70;68.60;;;;;;4998692;28;20721;-74
2022/02/07 12:49:11;;;;;;;3.97;3.63;;;10.60;69.30;;;;;;4998294;28;20184;-75
2022/02/07 12:51:43;;;;;;;5.70;3.28;;;10.50;69.40;;;;;;4999421;28;21058;-74
2022/02/07 12:54:14;;;;;;;3.60;3.05;;;10.50;69.10;;;;;;4999646;28;20259;-74
2022/02/07 12:56:40;;;;;;;4.57;3.63;;;10.50;69.10;;;;;;4997926;28;20188;-74
2022/02/07 12:59:07;;;;;;;6.57;4.53;;;10.50;69.30;;;;;;5001022;28;20173;-74
2022/02/07 13:01:36;;;;;;;4.68;4.28;;;10.30;69.80;;;;;;5000269;28;20185;-74
2022/02/07 13:04:05;;;;;;;5.47;3.50;;;10.30;70.00;;;;;;5000864;28;20176;-74
2022/02/07 13:06:45;;;;;;;4.60;3.88;;;10.30;69.90;;;;;;4999385;28;20221;-74
2022/02/07 13:09:39;;;;;;;4.53;4.03;;;10.20;69.90;;;;;;4999497;28;20662;-74
2022/02/07 13:14:48;;;;;;;8.50;4.25;;;10.20;69.90;;;;;;4999599;28;20189;-74
2022/02/07 13:17:17;;;;;;;5.30;4.15;;;10.30;69.60;;;;;;4998702;28;20633;-74
2022/02/07 13:19:49;;;;;;;9.68;3.85;;;10.30;70.10;;;;;;4998432;28;20185;-73
2022/02/07 13:22:17;;;;;;;4.07;3.65;;;10.30;69.90;;;;;;4999557;28;20235;-74
2022/02/07 13:24:44;;;;;;;3.20;2.97;;;10.30;69.80;;;;;;4996793;28;20646;-74
2022/02/07 13:27:15;;;;;;;4.45;2.47;;;10.20;70.00;;;;;;4997933;28;20210;-74
2022/02/07 13:29:46;;;;;;;2.67;1.63;;;10.20;70.30;;;;;;4997017;28;20180;-74
2022/02/07 13:32:17;;;;;;;4.15;1.10;;;10.10;70.70;;;;;;4996653;28;20268;-74
2022/02/07 13:34:45;;;;;;;1.80;1.53;;;10.10;70.50;;;;;;5000684;28;20181;-74
2022/02/07 13:37:16;;;;;;;1.25;1.13;;;10.10;70.60;;;;;;4998837;28;20188;-74
2022/02/07 13:39:51;;;;;;;1.70;1.60;;;10.10;70.60;;;;;;5000857;28;20192;-74
2022/02/07 13:42:16;;;;;;;0.90;0.90;;;10.20;70.30;;;;;;5001927;28;20274;-74
2022/02/07 13:44:43;;;;;;;1.00;1.00;;;10.30;70.30;;;;;;5002592;28;20897;-74
2022/02/07 13:47:11;;;;;;;1.45;0.90;;;10.30;70.20;;;;;;5002764;28;20246;-71
2022/02/07 13:49:55;;;;;;;1.50;0.70;;;10.30;70.00;;;;;;5003102;28;20192;-74
2022/02/07 13:52:21;;;;;;;0.70;0.70;;;10.20;70.40;;;;;;5004270;28;20180;-74
2022/02/07 13:54:48;;;;;;;1.00;0.98;;;10.20;70.50;;;;;;5004552;28;20192;-74
2022/02/07 13:57:13;;;;;;;0.90;0.90;;;10.20;70.50;;;;;;5000751;28;20203;-74
2022/02/07 13:59:39;;;;;;;0.80;0.80;;;10.20;70.50;;;;;;5003418;28;20185;-74
2022/02/07 14:02:25;;;;;;;1.00;1.00;;;10.20;70.40;;;;;;5003964;28;20181;-74
2022/02/07 14:04:53;;;;;;;1.25;1.25;;;10.20;70.30;;;;;;5005485;28;20229;-74
2022/02/07 14:07:18;;;;;;;1.50;1.45;;;10.20;70.40;;;;;;5003935;28;20184;-74
2022/02/07 14:09:44;;;;;;;2.03;1.53;;;10.20;70.30;;;;;;5005170;28;20181;-74
2022/02/07 14:12:12;;;;;;;1.77;1.67;;;10.20;70.30;;;;;;5005048;28;20770;-74
2022/02/07 14:14:38;;;;;;;2.05;1.60;;;10.10;70.50;;;;;;5003048;28;20185;-73
2022/02/07 14:17:05;;;;;;;1.75;1.65;;;10.10;70.50;;;;;;5002289;28;20196;-76
2022/02/07 14:19:46;;;;;;;1.92;1.45;;;10.10;70.60;;;;;;5002828;28;20220;-75
2022/02/07 14:22:12;;;;;;;3.55;1.48;;;10.00;70.90;;;;;;5004381;28;20272;-74
2022/02/07 14:24:39;;;;;;;1.52;1.42;;;10.10;70.40;;;;;;5005023;28;20319;-75
2022/02/07 14:27:06;;;;;;;2.05;0.98;;;10.10;70.70;;;;;;5005985;28;20646;-75
2022/02/07 14:29:32;;;;;;;0.90;0.90;;;10.10;70.70;;;;;;5004900;28;20185;-75
2022/02/07 14:31:58;;;;;;;1.35;1.35;;;10.10;70.60;;;;;;5004194;28;20564;-74
2022/02/07 14:34:23;;;;;;;2.37;1.63;;;10.10;70.50;;;;;;5003324;28;20205;-74
2022/02/07 14:36:49;;;;;;;1.60;1.50;;;10.10;70.30;;;;;;5005190;28;20189;-74
2022/02/07 14:39:15;;;;;;;2.07;1.07;;;10.00;71.10;;;;;;4997986;28;20197;-74
2022/02/07 14:41:46;;;;;;;1.07;1.07;;;9.90;71.70;;;;;;5002840;28;20196;-76
2022/02/07 14:44:20;;;;;;;0.98;0.93;;;10.00;71.50;;;;;;5002680;28;20207;-75
2022/02/07 14:46:53;;;;;;;1.02;1.02;;;9.90;71.80;;;;;;5002560;28;20191;-75
2022/02/07 14:49:19;;;;;;;2.25;2.00;;;10.00;71.60;;;;;;5004028;28;20223;-76
2022/02/07 14:51:45;;;;;;;1.58;1.48;;;10.00;71.60;;;;;;5003641;28;21240;-76
2022/02/07 14:54:11;;;;;;;0.93;0.93;;;10.00;72.60;;;;;;5003573;28;20378;-76
2022/02/07 14:56:36;;;;;;;0.98;0.95;;;9.90;73.80;;;;;;5003894;28;20204;-76
2022/02/07 14:59:03;;;;;;;0.88;0.82;;;9.80;73.90;;;;;;5003430;28;20181;-76
2022/02/07 15:01:29;;;;;;;0.70;0.70;;;9.80;74.50;;;;;;5000802;28;20188;-75
2022/02/07 15:03:55;;;;;;;0.65;0.65;;;9.70;74.50;;;;;;5000653;28;20254;-77
2022/02/07 15:06:21;;;;;;;0.97;0.97;;;9.70;75.30;;;;;;5003128;28;20212;-76
2022/02/07 15:08:47;;;;;;;1.10;1.10;;;9.60;74.80;;;;;;5004940;28;20267;-76
2022/02/07 15:11:14;;;;;;;1.00;1.00;;;9.60;74.40;;;;;;5002163;28;20239;-75
2022/02/07 15:13:40;;;;;;;1.20;1.20;;;9.50;74.70;;;;;;5002539;28;20208;-76
2022/02/07 15:16:06;;;;;;;1.20;1.10;;;9.50;75.20;;;;;;5000703;28;20663;-75
2022/02/07 15:18:33;;;;;;;2.40;1.50;;;9.50;75.20;;;;;;5002616;28;20212;-75
2022/02/07 15:21:00;;;;;;;0.73;0.73;;;9.50;75.60;;;;;;5000947;28;20181;-75
2022/02/07 15:23:26;;;;;;;0.80;0.80;;;9.50;75.80;;;;;;5001240;28;20217;-75
2022/02/07 15:25:52;;;;;;;0.60;0.60;;;9.50;76.20;;;;;;5005083;28;20256;-75
2022/02/07 15:28:18;;;;;;;0.60;0.60;;;9.50;76.40;;;;;;5005014;28;20216;-74
2022/02/07 15:30:47;;;;;;;0.83;0.83;;;9.50;76.60;;;;;;5003058;28;20188;-74
2022/02/07 15:33:16;;;;;;;0.60;0.60;;;9.60;76.60;;;;;;5003546;28;20181;-75
2022/02/07 15:35:44;;;;;;;0.85;0.85;;;9.50;77.90;;;;;;5004692;28;20693;-75
2022/02/07 15:38:10;;;;;;;1.57;1.00;;;9.40;78.70;;;;;;5005073;28;20193;-75
2022/02/07 15:40:36;;;;;;;1.10;1.10;;;9.30;79.40;;;;;;5005017;28;20243;-76
2022/02/07 15:43:02;;;;;;;2.17;1.33;;;9.20;79.30;;;;;;5005454;28;20635;-75